sensor_id;sensor_type;location;lat;lon;timestamp;P1;durP1;ratioP1;P2;durP2;ratioP2
42364;SDS011;28498;54.400;18.566;2023-07-22T00:00:58;20.30;;;8.20;;
42364;SDS011;28498;54.400;18.566;2023-07-22T00:03:25;17.23;;;8.60;;
42364;SDS011;28498;54.400;18.566;2023-07-22T00:06:08;19.70;;;9.02;;
42364;SDS011;28498;54.400;18.566;2023-07-22T00:08:37;22.05;;;9.52;;
42364;SDS011;28498;54.400;18.566;2023-07-22T00:11:04;20.95;;;9.35;;
42364;SDS011;28498;54.400;18.566;2023-07-22T00:13:32;22.52;;;9.13;;
42364;SDS011;28498;54.400;18.566;2023-07-22T00:15:59;20.67;;;9.43;;
42364;SDS011;28498;54.400;18.566;2023-07-22T00:18:27;24.25;;;10.48;;
42364;SDS011;28498;54.400;18.566;2023-07-22T00:20:54;21.75;;;9.60;;
42364;SDS011;28498;54.400;18.566;2023-07-22T00:23:21;19.02;;;9.05;;
42364;SDS011;28498;54.400;18.566;2023-07-22T00:25:49;19.63;;;8.70;;
42364;SDS011;28498;54.400;18.566;2023-07-22T00:28:16;21.17;;;9.18;;
42364;SDS011;28498;54.400;18.566;2023-07-22T00:30:45;20.02;;;8.73;;
42364;SDS011;28498;54.400;18.566;2023-07-22T00:33:12;24.83;;;8.70;;
42364;SDS011;28498;54.400;18.566;2023-07-22T00:35:40;22.20;;;8.75;;
42364;SDS011;28498;54.400;18.566;2023-07-22T00:38:07;20.85;;;8.52;;
42364;SDS011;28498;54.400;18.566;2023-07-22T00:40:36;20.77;;;8.32;;
42364;SDS011;28498;54.400;18.566;2023-07-22T00:43:03;16.70;;;7.93;;
42364;SDS011;28498;54.400;18.566;2023-07-22T00:45:31;17.65;;;8.05;;
42364;SDS011;28498;54.400;18.566;2023-07-22T00:47:59;18.75;;;8.70;;
42364;SDS011;28498;54.400;18.566;2023-07-22T00:50:26;18.88;;;8.13;;
42364;SDS011;28498;54.400;18.566;2023-07-22T00:52:53;19.05;;;8.40;;
42364;SDS011;28498;54.400;18.566;2023-07-22T00:55:20;17.52;;;7.53;;
42364;SDS011;28498;54.400;18.566;2023-07-22T00:57:47;18.58;;;8.20;;
42364;SDS011;28498;54.400;18.566;2023-07-22T01:00:14;15.85;;;8.25;;
42364;SDS011;28498;54.400;18.566;2023-07-22T01:02:43;21.55;;;8.13;;
42364;SDS011;28498;54.400;18.566;2023-07-22T01:05:10;17.75;;;8.18;;
42364;SDS011;28498;54.400;18.566;2023-07-22T01:07:38;17.02;;;8.15;;
42364;SDS011;28498;54.400;18.566;2023-07-22T01:10:06;21.30;;;7.88;;
42364;SDS011;28498;54.400;18.566;2023-07-22T01:12:34;15.23;;;8.10;;
42364;SDS011;28498;54.400;18.566;2023-07-22T01:15:02;17.83;;;7.95;;
42364;SDS011;28498;54.400;18.566;2023-07-22T01:17:36;17.65;;;7.50;;
42364;SDS011;28498;54.400;18.566;2023-07-22T01:20:05;17.52;;;7.05;;
42364;SDS011;28498;54.400;18.566;2023-07-22T01:22:33;18.73;;;7.38;;
42364;SDS011;28498;54.400;18.566;2023-07-22T01:25:00;14.75;;;7.78;;
42364;SDS011;28498;54.400;18.566;2023-07-22T01:27:28;15.32;;;6.40;;
42364;SDS011;28498;54.400;18.566;2023-07-22T01:29:55;16.88;;;7.13;;
42364;SDS011;28498;54.400;18.566;2023-07-22T01:32:22;14.05;;;7.13;;
42364;SDS011;28498;54.400;18.566;2023-07-22T01:34:49;18.33;;;8.10;;
42364;SDS011;28498;54.400;18.566;2023-07-22T01:37:17;19.70;;;8.52;;
42364;SDS011;28498;54.400;18.566;2023-07-22T01:39:44;16.92;;;7.47;;
42364;SDS011;28498;54.400;18.566;2023-07-22T01:42:11;18.55;;;8.60;;
42364;SDS011;28498;54.400;18.566;2023-07-22T01:44:39;19.23;;;7.47;;
42364;SDS011;28498;54.400;18.566;2023-07-22T01:47:06;14.23;;;6.60;;
42364;SDS011;28498;54.400;18.566;2023-07-22T01:49:33;17.30;;;6.90;;
42364;SDS011;28498;54.400;18.566;2023-07-22T01:52:00;15.18;;;6.70;;
42364;SDS011;28498;54.400;18.566;2023-07-22T01:54:27;12.45;;;6.82;;
42364;SDS011;28498;54.400;18.566;2023-07-22T01:56:54;12.18;;;6.57;;
42364;SDS011;28498;54.400;18.566;2023-07-22T01:59:22;12.40;;;6.20;;
42364;SDS011;28498;54.400;18.566;2023-07-22T02:01:49;12.18;;;6.50;;
42364;SDS011;28498;54.400;18.566;2023-07-22T02:04:16;14.38;;;7.45;;
42364;SDS011;28498;54.400;18.566;2023-07-22T02:06:43;15.95;;;7.00;;
42364;SDS011;28498;54.400;18.566;2023-07-22T02:09:11;13.18;;;6.97;;
42364;SDS011;28498;54.400;18.566;2023-07-22T02:11:40;15.32;;;6.78;;
42364;SDS011;28498;54.400;18.566;2023-07-22T02:14:07;16.50;;;6.38;;
42364;SDS011;28498;54.400;18.566;2023-07-22T02:16:34;20.15;;;6.63;;
42364;SDS011;28498;54.400;18.566;2023-07-22T02:19:04;12.45;;;5.93;;
42364;SDS011;28498;54.400;18.566;2023-07-22T02:21:31;12.55;;;6.38;;
42364;SDS011;28498;54.400;18.566;2023-07-22T02:23:59;15.82;;;7.00;;
42364;SDS011;28498;54.400;18.566;2023-07-22T02:26:26;13.68;;;6.63;;
42364;SDS011;28498;54.400;18.566;2023-07-22T02:28:53;15.82;;;6.40;;
42364;SDS011;28498;54.400;18.566;2023-07-22T02:31:21;11.75;;;6.07;;
42364;SDS011;28498;54.400;18.566;2023-07-22T02:33:49;15.23;;;6.85;;
42364;SDS011;28498;54.400;18.566;2023-07-22T02:36:16;11.25;;;5.68;;
42364;SDS011;28498;54.400;18.566;2023-07-22T02:38:43;13.20;;;6.10;;
42364;SDS011;28498;54.400;18.566;2023-07-22T02:41:10;13.98;;;6.72;;
42364;SDS011;28498;54.400;18.566;2023-07-22T02:43:37;11.68;;;5.85;;
42364;SDS011;28498;54.400;18.566;2023-07-22T02:46:05;13.88;;;6.55;;
42364;SDS011;28498;54.400;18.566;2023-07-22T02:48:34;12.52;;;6.22;;
42364;SDS011;28498;54.400;18.566;2023-07-22T02:51:05;12.02;;;6.75;;
42364;SDS011;28498;54.400;18.566;2023-07-22T02:53:34;12.57;;;6.63;;
42364;SDS011;28498;54.400;18.566;2023-07-22T02:56:03;12.30;;;6.20;;
42364;SDS011;28498;54.400;18.566;2023-07-22T02:58:31;13.35;;;5.90;;
42364;SDS011;28498;54.400;18.566;2023-07-22T03:00:58;11.80;;;6.32;;
42364;SDS011;28498;54.400;18.566;2023-07-22T03:03:25;13.30;;;6.70;;
42364;SDS011;28498;54.400;18.566;2023-07-22T03:05:53;8.93;;;5.82;;
42364;SDS011;28498;54.400;18.566;2023-07-22T03:08:20;10.20;;;5.80;;
42364;SDS011;28498;54.400;18.566;2023-07-22T03:10:47;10.80;;;6.25;;
42364;SDS011;28498;54.400;18.566;2023-07-22T03:13:15;14.45;;;7.13;;
42364;SDS011;28498;54.400;18.566;2023-07-22T03:15:42;12.63;;;6.55;;
42364;SDS011;28498;54.400;18.566;2023-07-22T03:18:10;11.07;;;6.43;;
42364;SDS011;28498;54.400;18.566;2023-07-22T03:20:38;11.60;;;5.97;;
42364;SDS011;28498;54.400;18.566;2023-07-22T03:23:05;13.15;;;6.55;;
42364;SDS011;28498;54.400;18.566;2023-07-22T03:25:34;10.55;;;6.10;;
42364;SDS011;28498;54.400;18.566;2023-07-22T03:28:04;12.77;;;6.55;;
42364;SDS011;28498;54.400;18.566;2023-07-22T03:30:33;9.60;;;6.03;;
42364;SDS011;28498;54.400;18.566;2023-07-22T03:33:00;9.68;;;5.95;;
42364;SDS011;28498;54.400;18.566;2023-07-22T03:35:27;11.05;;;5.55;;
42364;SDS011;28498;54.400;18.566;2023-07-22T03:37:54;8.57;;;5.35;;
42364;SDS011;28498;54.400;18.566;2023-07-22T03:40:22;7.53;;;4.80;;
42364;SDS011;28498;54.400;18.566;2023-07-22T03:42:57;9.65;;;4.90;;
42364;SDS011;28498;54.400;18.566;2023-07-22T03:45:24;8.10;;;4.97;;
42364;SDS011;28498;54.400;18.566;2023-07-22T03:47:52;9.15;;;5.13;;
42364;SDS011;28498;54.400;18.566;2023-07-22T03:50:23;10.07;;;4.97;;
42364;SDS011;28498;54.400;18.566;2023-07-22T03:52:50;8.25;;;4.75;;
42364;SDS011;28498;54.400;18.566;2023-07-22T03:55:17;7.82;;;4.93;;
42364;SDS011;28498;54.400;18.566;2023-07-22T03:57:46;7.28;;;4.88;;
42364;SDS011;28498;54.400;18.566;2023-07-22T04:00:13;7.68;;;4.68;;
42364;SDS011;28498;54.400;18.566;2023-07-22T04:02:40;6.45;;;4.25;;
42364;SDS011;28498;54.400;18.566;2023-07-22T04:05:08;5.95;;;4.15;;
42364;SDS011;28498;54.400;18.566;2023-07-22T04:07:36;6.20;;;3.65;;
42364;SDS011;28498;54.400;18.566;2023-07-22T04:10:03;7.35;;;3.95;;
42364;SDS011;28498;54.400;18.566;2023-07-22T04:12:30;4.50;;;2.83;;
42364;SDS011;28498;54.400;18.566;2023-07-22T04:14:57;6.15;;;2.90;;
42364;SDS011;28498;54.400;18.566;2023-07-22T04:17:25;4.10;;;2.78;;
42364;SDS011;28498;54.400;18.566;2023-07-22T04:19:52;4.75;;;2.33;;
42364;SDS011;28498;54.400;18.566;2023-07-22T04:22:20;4.63;;;2.22;;
42364;SDS011;28498;54.400;18.566;2023-07-22T04:24:47;5.25;;;2.67;;
42364;SDS011;28498;54.400;18.566;2023-07-22T04:27:17;8.05;;;3.38;;
42364;SDS011;28498;54.400;18.566;2023-07-22T04:29:44;4.13;;;2.35;;
42364;SDS011;28498;54.400;18.566;2023-07-22T04:32:11;5.65;;;2.90;;
42364;SDS011;28498;54.400;18.566;2023-07-22T04:34:39;5.93;;;2.22;;
42364;SDS011;28498;54.400;18.566;2023-07-22T04:37:06;3.63;;;2.10;;
42364;SDS011;28498;54.400;18.566;2023-07-22T04:39:33;3.28;;;2.42;;
42364;SDS011;28498;54.400;18.566;2023-07-22T04:42:00;3.22;;;2.30;;
42364;SDS011;28498;54.400;18.566;2023-07-22T04:44:28;4.47;;;2.40;;
42364;SDS011;28498;54.400;18.566;2023-07-22T04:46:55;4.88;;;2.60;;
42364;SDS011;28498;54.400;18.566;2023-07-22T04:49:22;5.32;;;2.78;;
42364;SDS011;28498;54.400;18.566;2023-07-22T04:51:49;3.83;;;2.80;;
42364;SDS011;28498;54.400;18.566;2023-07-22T04:54:17;3.50;;;2.35;;
42364;SDS011;28498;54.400;18.566;2023-07-22T04:56:44;5.90;;;3.00;;
42364;SDS011;28498;54.400;18.566;2023-07-22T04:59:12;6.07;;;2.97;;
42364;SDS011;28498;54.400;18.566;2023-07-22T05:01:41;6.85;;;3.05;;
42364;SDS011;28498;54.400;18.566;2023-07-22T05:04:08;5.50;;;2.78;;
42364;SDS011;28498;54.400;18.566;2023-07-22T05:06:35;4.05;;;2.70;;
42364;SDS011;28498;54.400;18.566;2023-07-22T05:09:02;4.50;;;2.78;;
42364;SDS011;28498;54.400;18.566;2023-07-22T05:11:30;3.50;;;2.40;;
42364;SDS011;28498;54.400;18.566;2023-07-22T05:13:57;3.83;;;2.63;;
42364;SDS011;28498;54.400;18.566;2023-07-22T05:16:24;3.80;;;2.60;;
42364;SDS011;28498;54.400;18.566;2023-07-22T05:18:52;6.40;;;3.30;;
42364;SDS011;28498;54.400;18.566;2023-07-22T05:21:19;5.05;;;2.83;;
42364;SDS011;28498;54.400;18.566;2023-07-22T05:23:46;4.38;;;2.80;;
42364;SDS011;28498;54.400;18.566;2023-07-22T05:26:13;5.00;;;2.70;;
42364;SDS011;28498;54.400;18.566;2023-07-22T05:28:40;5.13;;;2.95;;
42364;SDS011;28498;54.400;18.566;2023-07-22T05:31:08;4.78;;;3.00;;
42364;SDS011;28498;54.400;18.566;2023-07-22T05:33:35;4.90;;;2.80;;
42364;SDS011;28498;54.400;18.566;2023-07-22T05:36:03;5.75;;;3.05;;
42364;SDS011;28498;54.400;18.566;2023-07-22T05:38:31;4.63;;;3.15;;
42364;SDS011;28498;54.400;18.566;2023-07-22T05:40:58;4.75;;;2.70;;
42364;SDS011;28498;54.400;18.566;2023-07-22T05:43:25;4.65;;;2.95;;
42364;SDS011;28498;54.400;18.566;2023-07-22T05:45:52;4.32;;;2.92;;
42364;SDS011;28498;54.400;18.566;2023-07-22T05:48:19;4.72;;;2.78;;
42364;SDS011;28498;54.400;18.566;2023-07-22T05:50:48;3.75;;;2.90;;
42364;SDS011;28498;54.400;18.566;2023-07-22T05:53:15;5.93;;;2.70;;
42364;SDS011;28498;54.400;18.566;2023-07-22T05:55:43;5.32;;;3.92;;
42364;SDS011;28498;54.400;18.566;2023-07-22T05:58:16;8.48;;;3.05;;
42364;SDS011;28498;54.400;18.566;2023-07-22T06:00:44;4.07;;;2.80;;
42364;SDS011;28498;54.400;18.566;2023-07-22T06:03:13;5.03;;;3.25;;
42364;SDS011;28498;54.400;18.566;2023-07-22T06:05:40;5.30;;;3.58;;
42364;SDS011;28498;54.400;18.566;2023-07-22T06:08:07;5.40;;;3.17;;
42364;SDS011;28498;54.400;18.566;2023-07-22T06:10:34;4.88;;;3.22;;
42364;SDS011;28498;54.400;18.566;2023-07-22T06:13:04;5.97;;;3.58;;
42364;SDS011;28498;54.400;18.566;2023-07-22T06:15:31;6.03;;;3.22;;
42364;SDS011;28498;54.400;18.566;2023-07-22T06:17:59;5.80;;;3.05;;
42364;SDS011;28498;54.400;18.566;2023-07-22T06:20:27;6.05;;;3.10;;
42364;SDS011;28498;54.400;18.566;2023-07-22T06:22:55;6.10;;;3.05;;
42364;SDS011;28498;54.400;18.566;2023-07-22T06:25:22;5.63;;;3.13;;
42364;SDS011;28498;54.400;18.566;2023-07-22T06:27:49;4.63;;;2.70;;
42364;SDS011;28498;54.400;18.566;2023-07-22T06:30:16;5.78;;;3.15;;
42364;SDS011;28498;54.400;18.566;2023-07-22T06:32:43;6.95;;;3.13;;
42364;SDS011;28498;54.400;18.566;2023-07-22T06:35:11;7.93;;;3.55;;
42364;SDS011;28498;54.400;18.566;2023-07-22T06:37:38;5.72;;;3.47;;
42364;SDS011;28498;54.400;18.566;2023-07-22T06:40:06;6.72;;;2.92;;
42364;SDS011;28498;54.400;18.566;2023-07-22T06:42:34;4.43;;;3.22;;
42364;SDS011;28498;54.400;18.566;2023-07-22T06:45:01;5.00;;;3.10;;
42364;SDS011;28498;54.400;18.566;2023-07-22T06:47:28;6.05;;;3.35;;
42364;SDS011;28498;54.400;18.566;2023-07-22T06:49:55;6.03;;;3.05;;
42364;SDS011;28498;54.400;18.566;2023-07-22T06:52:22;4.30;;;2.92;;
42364;SDS011;28498;54.400;18.566;2023-07-22T06:54:49;7.03;;;3.75;;
42364;SDS011;28498;54.400;18.566;2023-07-22T06:57:16;5.75;;;3.78;;
42364;SDS011;28498;54.400;18.566;2023-07-22T06:59:43;4.47;;;3.08;;
42364;SDS011;28498;54.400;18.566;2023-07-22T07:05:52;4.80;;;2.90;;
42364;SDS011;28498;54.400;18.566;2023-07-22T07:08:23;5.20;;;3.10;;
42364;SDS011;28498;54.400;18.566;2023-07-22T07:10:50;4.65;;;2.92;;
42364;SDS011;28498;54.400;18.566;2023-07-22T07:13:18;4.72;;;2.97;;
42364;SDS011;28498;54.400;18.566;2023-07-22T07:15:46;6.50;;;2.97;;
42364;SDS011;28498;54.400;18.566;2023-07-22T07:18:16;3.92;;;2.75;;
42364;SDS011;28498;54.400;18.566;2023-07-22T07:20:44;5.65;;;3.42;;
42364;SDS011;28498;54.400;18.566;2023-07-22T07:23:12;4.93;;;2.72;;
42364;SDS011;28498;54.400;18.566;2023-07-22T07:25:40;3.63;;;2.63;;
42364;SDS011;28498;54.400;18.566;2023-07-22T07:28:07;4.70;;;3.03;;
42364;SDS011;28498;54.400;18.566;2023-07-22T07:30:34;4.80;;;2.97;;
42364;SDS011;28498;54.400;18.566;2023-07-22T07:33:01;4.22;;;2.67;;
42364;SDS011;28498;54.400;18.566;2023-07-22T07:35:28;6.38;;;2.85;;
42364;SDS011;28498;54.400;18.566;2023-07-22T07:37:55;4.15;;;2.78;;
42364;SDS011;28498;54.400;18.566;2023-07-22T07:40:22;4.72;;;3.28;;
42364;SDS011;28498;54.400;18.566;2023-07-22T07:42:49;6.30;;;3.00;;
42364;SDS011;28498;54.400;18.566;2023-07-22T07:45:16;4.00;;;2.88;;
42364;SDS011;28498;54.400;18.566;2023-07-22T07:47:43;4.00;;;2.90;;
42364;SDS011;28498;54.400;18.566;2023-07-22T07:53:58;6.13;;;3.03;;
42364;SDS011;28498;54.400;18.566;2023-07-22T07:56:26;4.18;;;2.63;;
42364;SDS011;28498;54.400;18.566;2023-07-22T07:58:53;3.92;;;2.70;;
42364;SDS011;28498;54.400;18.566;2023-07-22T08:01:21;5.45;;;3.13;;
42364;SDS011;28498;54.400;18.566;2023-07-22T08:03:48;3.15;;;2.30;;
42364;SDS011;28498;54.400;18.566;2023-07-22T08:06:16;4.05;;;2.88;;
42364;SDS011;28498;54.400;18.566;2023-07-22T08:12:26;4.70;;;2.60;;
42364;SDS011;28498;54.400;18.566;2023-07-22T08:14:53;5.10;;;2.60;;
42364;SDS011;28498;54.400;18.566;2023-07-22T08:17:20;4.30;;;2.35;;
42364;SDS011;28498;54.400;18.566;2023-07-22T08:19:47;5.07;;;2.75;;
42364;SDS011;28498;54.400;18.566;2023-07-22T08:22:15;4.28;;;2.58;;
42364;SDS011;28498;54.400;18.566;2023-07-22T08:24:42;5.15;;;2.63;;
42364;SDS011;28498;54.400;18.566;2023-07-22T08:27:11;3.85;;;2.47;;
42364;SDS011;28498;54.400;18.566;2023-07-22T08:29:38;4.68;;;2.30;;
42364;SDS011;28498;54.400;18.566;2023-07-22T08:32:05;5.00;;;2.60;;
42364;SDS011;28498;54.400;18.566;2023-07-22T08:34:32;6.97;;;2.60;;
42364;SDS011;28498;54.400;18.566;2023-07-22T08:36:59;4.95;;;2.60;;
42364;SDS011;28498;54.400;18.566;2023-07-22T08:39:26;3.85;;;2.50;;
42364;SDS011;28498;54.400;18.566;2023-07-22T08:41:53;3.83;;;2.72;;
42364;SDS011;28498;54.400;18.566;2023-07-22T08:44:22;4.00;;;2.50;;
42364;SDS011;28498;54.400;18.566;2023-07-22T08:46:56;10.70;;;2.72;;
42364;SDS011;28498;54.400;18.566;2023-07-22T08:49:26;5.38;;;2.83;;
42364;SDS011;28498;54.400;18.566;2023-07-22T08:51:55;8.40;;;2.90;;
42364;SDS011;28498;54.400;18.566;2023-07-22T08:54:24;4.45;;;2.80;;
42364;SDS011;28498;54.400;18.566;2023-07-22T08:56:51;5.07;;;2.88;;
42364;SDS011;28498;54.400;18.566;2023-07-22T08:59:18;6.25;;;3.90;;
42364;SDS011;28498;54.400;18.566;2023-07-22T09:01:47;7.05;;;4.05;;
42364;SDS011;28498;54.400;18.566;2023-07-22T09:04:15;6.30;;;3.45;;
42364;SDS011;28498;54.400;18.566;2023-07-22T09:06:42;4.65;;;3.58;;
42364;SDS011;28498;54.400;18.566;2023-07-22T09:09:10;5.80;;;3.65;;
42364;SDS011;28498;54.400;18.566;2023-07-22T09:11:38;5.40;;;4.20;;
42364;SDS011;28498;54.400;18.566;2023-07-22T09:14:05;5.63;;;4.68;;
42364;SDS011;28498;54.400;18.566;2023-07-22T09:16:35;9.57;;;5.40;;
42364;SDS011;28498;54.400;18.566;2023-07-22T09:19:03;6.28;;;4.82;;
42364;SDS011;28498;54.400;18.566;2023-07-22T09:21:31;6.20;;;4.93;;
42364;SDS011;28498;54.400;18.566;2023-07-22T09:24:06;7.32;;;5.43;;
42364;SDS011;28498;54.400;18.566;2023-07-22T09:29:14;6.90;;;5.07;;
42364;SDS011;28498;54.400;18.566;2023-07-22T09:31:48;5.85;;;4.47;;
42364;SDS011;28498;54.400;18.566;2023-07-22T09:34:19;6.68;;;4.70;;
42364;SDS011;28498;54.400;18.566;2023-07-22T09:37:04;4.53;;;3.92;;
42364;SDS011;28498;54.400;18.566;2023-07-22T09:39:31;6.50;;;3.80;;
42364;SDS011;28498;54.400;18.566;2023-07-22T09:42:01;3.90;;;2.97;;
42364;SDS011;28498;54.400;18.566;2023-07-22T09:44:30;5.38;;;2.78;;
42364;SDS011;28498;54.400;18.566;2023-07-22T09:47:05;5.53;;;2.78;;
42364;SDS011;28498;54.400;18.566;2023-07-22T09:49:39;4.22;;;2.70;;
42364;SDS011;28498;54.400;18.566;2023-07-22T09:52:10;3.60;;;2.65;;
42364;SDS011;28498;54.400;18.566;2023-07-22T09:54:46;3.20;;;2.13;;
42364;SDS011;28498;54.400;18.566;2023-07-22T09:57:14;3.53;;;2.05;;
42364;SDS011;28498;54.400;18.566;2023-07-22T09:59:42;3.20;;;1.88;;
42364;SDS011;28498;54.400;18.566;2023-07-22T10:02:09;4.75;;;2.10;;
42364;SDS011;28498;54.400;18.566;2023-07-22T10:04:37;4.75;;;2.00;;
42364;SDS011;28498;54.400;18.566;2023-07-22T10:07:06;3.15;;;2.00;;
42364;SDS011;28498;54.400;18.566;2023-07-22T10:09:35;3.90;;;1.80;;
42364;SDS011;28498;54.400;18.566;2023-07-22T10:12:04;3.55;;;1.77;;
42364;SDS011;28498;54.400;18.566;2023-07-22T10:14:31;3.45;;;2.08;;
42364;SDS011;28498;54.400;18.566;2023-07-22T10:17:02;5.70;;;2.30;;
42364;SDS011;28498;54.400;18.566;2023-07-22T10:19:30;4.78;;;1.90;;
42364;SDS011;28498;54.400;18.566;2023-07-22T10:21:58;4.13;;;1.52;;
42364;SDS011;28498;54.400;18.566;2023-07-22T10:24:26;3.28;;;1.67;;
42364;SDS011;28498;54.400;18.566;2023-07-22T10:26:54;3.83;;;1.50;;
42364;SDS011;28498;54.400;18.566;2023-07-22T10:29:21;4.22;;;1.80;;
42364;SDS011;28498;54.400;18.566;2023-07-22T10:31:53;6.88;;;1.80;;
42364;SDS011;28498;54.400;18.566;2023-07-22T10:34:21;2.90;;;1.50;;
42364;SDS011;28498;54.400;18.566;2023-07-22T10:36:49;3.00;;;1.60;;
42364;SDS011;28498;54.400;18.566;2023-07-22T10:39:26;3.67;;;1.70;;
42364;SDS011;28498;54.400;18.566;2023-07-22T10:42:03;3.45;;;1.42;;
42364;SDS011;28498;54.400;18.566;2023-07-22T10:44:32;3.90;;;1.20;;
42364;SDS011;28498;54.400;18.566;2023-07-22T10:47:01;2.92;;;1.60;;
42364;SDS011;28498;54.400;18.566;2023-07-22T10:49:43;2.75;;;1.50;;
42364;SDS011;28498;54.400;18.566;2023-07-22T10:52:11;4.10;;;1.63;;
42364;SDS011;28498;54.400;18.566;2023-07-22T10:54:40;5.15;;;1.60;;
42364;SDS011;28498;54.400;18.566;2023-07-22T10:59:49;2.67;;;1.30;;
42364;SDS011;28498;54.400;18.566;2023-07-22T11:02:24;2.35;;;1.30;;
42364;SDS011;28498;54.400;18.566;2023-07-22T11:04:55;2.40;;;1.17;;
42364;SDS011;28498;54.400;18.566;2023-07-22T11:07:30;1.90;;;1.10;;
42364;SDS011;28498;54.400;18.566;2023-07-22T11:10:10;2.15;;;1.20;;
42364;SDS011;28498;54.400;18.566;2023-07-22T11:12:45;2.58;;;1.20;;
42364;SDS011;28498;54.400;18.566;2023-07-22T11:15:15;4.07;;;1.33;;
42364;SDS011;28498;54.400;18.566;2023-07-22T11:17:44;2.47;;;1.10;;
42364;SDS011;28498;54.400;18.566;2023-07-22T11:20:11;2.60;;;1.20;;
42364;SDS011;28498;54.400;18.566;2023-07-22T11:22:39;2.65;;;1.50;;
42364;SDS011;28498;54.400;18.566;2023-07-22T11:25:07;2.22;;;1.35;;
42364;SDS011;28498;54.400;18.566;2023-07-22T11:27:35;3.22;;;1.17;;
42364;SDS011;28498;54.400;18.566;2023-07-22T11:30:02;2.65;;;1.20;;
42364;SDS011;28498;54.400;18.566;2023-07-22T11:32:31;4.75;;;1.35;;
42364;SDS011;28498;54.400;18.566;2023-07-22T11:34:59;3.35;;;1.38;;
42364;SDS011;28498;54.400;18.566;2023-07-22T11:37:29;2.22;;;1.35;;
42364;SDS011;28498;54.400;18.566;2023-07-22T11:40:00;1.98;;;1.23;;
42364;SDS011;28498;54.400;18.566;2023-07-22T11:42:27;3.92;;;1.38;;
42364;SDS011;28498;54.400;18.566;2023-07-22T11:44:55;1.90;;;1.10;;
42364;SDS011;28498;54.400;18.566;2023-07-22T11:47:28;2.35;;;1.05;;
42364;SDS011;28498;54.400;18.566;2023-07-22T11:49:57;2.25;;;1.13;;
42364;SDS011;28498;54.400;18.566;2023-07-22T11:52:25;2.55;;;1.10;;
42364;SDS011;28498;54.400;18.566;2023-07-22T11:54:52;3.17;;;1.40;;
42364;SDS011;28498;54.400;18.566;2023-07-22T11:57:22;3.83;;;1.20;;
42364;SDS011;28498;54.400;18.566;2023-07-22T11:59:51;2.80;;;1.20;;
42364;SDS011;28498;54.400;18.566;2023-07-22T12:02:20;2.70;;;1.20;;
42364;SDS011;28498;54.400;18.566;2023-07-22T12:04:59;2.28;;;1.10;;
42364;SDS011;28498;54.400;18.566;2023-07-22T12:07:34;2.17;;;1.00;;
42364;SDS011;28498;54.400;18.566;2023-07-22T12:10:03;2.75;;;1.08;;
42364;SDS011;28498;54.400;18.566;2023-07-22T12:12:35;2.63;;;1.00;;
42364;SDS011;28498;54.400;18.566;2023-07-22T12:15:12;2.08;;;1.02;;
42364;SDS011;28498;54.400;18.566;2023-07-22T12:17:47;2.00;;;1.10;;
42364;SDS011;28498;54.400;18.566;2023-07-22T12:20:19;1.90;;;0.88;;
42364;SDS011;28498;54.400;18.566;2023-07-22T12:22:54;3.10;;;1.20;;
42364;SDS011;28498;54.400;18.566;2023-07-22T12:25:22;2.83;;;1.33;;
42364;SDS011;28498;54.400;18.566;2023-07-22T12:27:49;6.25;;;1.60;;
42364;SDS011;28498;54.400;18.566;2023-07-22T12:30:17;3.35;;;1.48;;
42364;SDS011;28498;54.400;18.566;2023-07-22T12:32:46;3.58;;;2.00;;
42364;SDS011;28498;54.400;18.566;2023-07-22T12:35:14;6.18;;;2.30;;
42364;SDS011;28498;54.400;18.566;2023-07-22T12:37:42;4.57;;;2.72;;
42364;SDS011;28498;54.400;18.566;2023-07-22T12:40:09;6.30;;;3.85;;
42364;SDS011;28498;54.400;18.566;2023-07-22T12:42:39;5.95;;;2.80;;
42364;SDS011;28498;54.400;18.566;2023-07-22T12:45:07;6.82;;;3.28;;
42364;SDS011;28498;54.400;18.566;2023-07-22T12:47:35;5.50;;;3.47;;
42364;SDS011;28498;54.400;18.566;2023-07-22T12:50:04;7.82;;;3.95;;
42364;SDS011;28498;54.400;18.566;2023-07-22T12:52:34;5.78;;;3.00;;
42364;SDS011;28498;54.400;18.566;2023-07-22T12:55:02;5.30;;;3.03;;
42364;SDS011;28498;54.400;18.566;2023-07-22T12:57:29;5.50;;;3.10;;
42364;SDS011;28498;54.400;18.566;2023-07-22T12:59:56;4.72;;;2.95;;
42364;SDS011;28498;54.400;18.566;2023-07-22T13:02:23;4.93;;;3.50;;
42364;SDS011;28498;54.400;18.566;2023-07-22T13:04:51;5.88;;;3.20;;
42364;SDS011;28498;54.400;18.566;2023-07-22T13:07:18;4.45;;;2.70;;
42364;SDS011;28498;54.400;18.566;2023-07-22T13:09:45;4.93;;;2.50;;
42364;SDS011;28498;54.400;18.566;2023-07-22T13:12:15;4.63;;;3.30;;
42364;SDS011;28498;54.400;18.566;2023-07-22T13:14:42;5.03;;;3.47;;
42364;SDS011;28498;54.400;18.566;2023-07-22T13:17:09;6.18;;;3.13;;
42364;SDS011;28498;54.400;18.566;2023-07-22T13:19:36;4.78;;;2.70;;
42364;SDS011;28498;54.400;18.566;2023-07-22T13:22:03;6.03;;;2.72;;
42364;SDS011;28498;54.400;18.566;2023-07-22T13:24:30;5.95;;;3.30;;
42364;SDS011;28498;54.400;18.566;2023-07-22T13:26:57;4.53;;;2.58;;
42364;SDS011;28498;54.400;18.566;2023-07-22T13:29:24;4.55;;;2.30;;
42364;SDS011;28498;54.400;18.566;2023-07-22T13:31:51;7.70;;;2.58;;
42364;SDS011;28498;54.400;18.566;2023-07-22T13:34:18;3.92;;;2.15;;
42364;SDS011;28498;54.400;18.566;2023-07-22T13:36:46;4.18;;;2.47;;
42364;SDS011;28498;54.400;18.566;2023-07-22T13:39:13;5.13;;;2.40;;
42364;SDS011;28498;54.400;18.566;2023-07-22T13:41:40;4.05;;;2.05;;
42364;SDS011;28498;54.400;18.566;2023-07-22T13:44:07;3.63;;;2.55;;
42364;SDS011;28498;54.400;18.566;2023-07-22T13:46:34;3.75;;;1.70;;
42364;SDS011;28498;54.400;18.566;2023-07-22T13:49:01;3.92;;;2.10;;
42364;SDS011;28498;54.400;18.566;2023-07-22T13:51:28;4.35;;;1.95;;
42364;SDS011;28498;54.400;18.566;2023-07-22T13:53:55;3.30;;;2.08;;
42364;SDS011;28498;54.400;18.566;2023-07-22T13:56:24;3.78;;;2.00;;
42364;SDS011;28498;54.400;18.566;2023-07-22T13:58:53;3.22;;;1.55;;
42364;SDS011;28498;54.400;18.566;2023-07-22T14:01:21;3.05;;;1.50;;
42364;SDS011;28498;54.400;18.566;2023-07-22T14:03:49;4.40;;;1.38;;
42364;SDS011;28498;54.400;18.566;2023-07-22T14:06:16;2.50;;;1.35;;
42364;SDS011;28498;54.400;18.566;2023-07-22T14:08:43;4.40;;;1.80;;
42364;SDS011;28498;54.400;18.566;2023-07-22T14:11:11;3.47;;;2.05;;
42364;SDS011;28498;54.400;18.566;2023-07-22T14:13:39;3.08;;;1.50;;
42364;SDS011;28498;54.400;18.566;2023-07-22T14:16:06;3.22;;;1.40;;
42364;SDS011;28498;54.400;18.566;2023-07-22T14:18:47;2.58;;;1.35;;
42364;SDS011;28498;54.400;18.566;2023-07-22T14:21:14;4.25;;;1.73;;
42364;SDS011;28498;54.400;18.566;2023-07-22T14:23:42;3.75;;;1.88;;
42364;SDS011;28498;54.400;18.566;2023-07-22T14:26:10;3.75;;;1.75;;
42364;SDS011;28498;54.400;18.566;2023-07-22T14:28:37;6.80;;;2.00;;
42364;SDS011;28498;54.400;18.566;2023-07-22T14:31:04;3.35;;;1.83;;
42364;SDS011;28498;54.400;18.566;2023-07-22T14:33:32;3.85;;;1.73;;
42364;SDS011;28498;54.400;18.566;2023-07-22T14:35:59;3.47;;;1.60;;
42364;SDS011;28498;54.400;18.566;2023-07-22T14:38:26;3.08;;;1.85;;
42364;SDS011;28498;54.400;18.566;2023-07-22T14:40:54;5.05;;;2.15;;
42364;SDS011;28498;54.400;18.566;2023-07-22T14:43:21;3.90;;;1.52;;
42364;SDS011;28498;54.400;18.566;2023-07-22T14:45:48;3.05;;;1.35;;
42364;SDS011;28498;54.400;18.566;2023-07-22T14:48:15;3.83;;;1.27;;
42364;SDS011;28498;54.400;18.566;2023-07-22T14:50:42;2.67;;;1.13;;
42364;SDS011;28498;54.400;18.566;2023-07-22T14:53:09;3.35;;;1.58;;